Estación Meteorológica Peña el Pijo (Robertgarden) [ 12/17/17 01:25:35 CET ]

Fecha Hora Presion(HPa) Temp (°C) Humedad % Rocio (°C) Viento ( m/s) Direccion Lluvia 1Hora(mm) Lluvia 24H(mm) LLuvia Total(mm)
2017-Oct-23 01:01:46 1017.100 7.8 82 4.9         1466.45
2017-Oct-23 02:01:45 1016.900 7.8 83 5.1         1466.45
2017-Oct-23 03:02:05 1016.200 7.4 84 4.9         1466.45
2017-Oct-23 04:01:53 1016.000 7.2 85 4.8         1466.45
2017-Oct-23 05:01:55 1015.900 6.4 85 4.0         1466.45
2017-Oct-23 06:03:06 1015.900 5.6 86 3.4         1466.45
2017-Oct-23 07:01:42 1016.000 5.4 86 3.2         1466.45
2017-Oct-23 08:01:41 1015.600 5.2 86 3.0         1466.45
2017-Oct-23 09:01:53 1015.700 4.9 87 2.9         1466.45
2017-Oct-23 10:01:43 1016.200 10.1 90 8.5         1466.45
2017-Oct-23 11:01:48 1016.600 16.6 74 12.1         1466.45
2017-Oct-23 12:01:46 1016.600 21.5 51 10.9         1466.45
2017-Oct-23 13:01:52 1016.300 23.1 35 6.7         1466.45
2017-Oct-23 14:01:32 1016.400 23.2 30 4.7         1466.45
2017-Oct-23 15:01:43 1015.700 25.4 27 4.9         1466.45
2017-Oct-23 16:01:44 1015.000 25.4 28 5.5         1466.45
2017-Oct-23 17:01:41 1014.600 24.6 29 5.4         1466.45
2017-Oct-23 18:01:56 1014.500 21.9 34 5.2         1466.45
2017-Oct-23 19:01:48 1015.200 17.3 44 4.8         1466.45
2017-Oct-23 20:01:41 1015.600 14.9 53 5.4         1466.45
2017-Oct-23 21:01:46 1016.200 12.6 61 5.3         1466.45
2017-Oct-23 22:01:47 1016.500 10.1 68 4.4         1466.45
2017-Oct-23 23:01:44 1016.700 9.1 73 4.5         1466.45

Temperatura Máxima:25°    Temperatura Mínima:
Presión Máxima:1017.100 Hpa    Presión Mínima:1014.500 Hpa


Volver